Time;durP1;ratioP1;P1;durP2;ratioP2;P2;SDS_P1;SDS_P2;PMS_P1;PMS_P2;Temp;Humidity;BMP_temperature;BMP_pressure;BME280_temperature;BME280_humidity;BME280_pressure;Samples;Min_cycle;Max_cycle;Signal;HPM_P1;HPM_P2
2022/04/19 00:01:42;;;;;;;89.20;13.40;;;;;;;;;;4972200;28;20221;-52
2022/04/19 00:04:08;;;;;;;134.77;19.90;;;;;;;;;;4955528;28;20217;-52
2022/04/19 00:06:35;;;;;;;105.13;15.87;;;;;;;;;;4960142;28;20225;-52
2022/04/19 00:09:01;;;;;;;97.17;14.10;;;;;;;;;;4969031;28;20594;-52
2022/04/19 00:11:27;;;;;;;57.93;9.47;;;;;;;;;;4965917;28;20190;-52
2022/04/19 00:13:53;;;;;;;129.03;20.40;;;;;;;;;;4959461;28;20190;-52
2022/04/19 00:16:19;;;;;;;120.37;29.70;;;;;;;;;;4966455;28;20706;-52
2022/04/19 00:18:45;;;;;;;134.33;27.20;;;;;;;;;;4963975;28;20244;-52
2022/04/19 00:21:11;;;;;;;115.93;23.13;;;;;;;;;;4961404;28;20320;-52
2022/04/19 00:23:37;;;;;;;52.57;14.50;;;;;;;;;;4969607;28;20272;-52
2022/04/19 00:26:03;;;;;;;97.33;21.07;;;;;;;;;;4964854;28;20207;-52
2022/04/19 00:28:29;;;;;;;155.17;30.63;;;;;;;;;;4962825;28;20375;-52
2022/04/19 00:30:55;;;;;;;164.13;30.37;;;;;;;;;;4970402;28;20359;-52
2022/04/19 00:33:21;;;;;;;101.93;18.87;;;;;;;;;;4971507;28;21253;-52
2022/04/19 00:35:47;;;;;;;135.10;23.67;;;;;;;;;;4964278;28;20221;-52
2022/04/19 00:38:13;;;;;;;132.97;23.67;;;;;;;;;;4964901;28;20186;-52
2022/04/19 00:40:39;;;;;;;60.10;11.70;;;;;;;;;;4967118;28;20218;-52
2022/04/19 00:43:05;;;;;;;136.33;23.07;;;;;;;;;;4964050;28;20303;-52
2022/04/19 00:45:34;;;;;;;112.70;20.10;;;;;;;;;;4965482;28;20217;-52
2022/04/19 00:48:00;;;;;;;140.90;23.63;;;;;;;;;;4967489;28;20332;-52
2022/04/19 00:50:26;;;;;;;79.43;14.77;;;;;;;;;;4966852;28;20198;-52
2022/04/19 00:52:52;;;;;;;112.27;20.20;;;;;;;;;;4969266;28;21109;-52
2022/04/19 00:55:18;;;;;;;100.13;18.17;;;;;;;;;;4975836;28;20229;-52
2022/04/19 00:57:47;;;;;;;143.30;25.33;;;;;;;;;;4965521;28;20232;-52
2022/04/19 01:00:13;;;;;;;126.00;22.50;;;;;;;;;;4961276;28;20229;-52
2022/04/19 01:02:40;;;;;;;147.53;26.53;;;;;;;;;;4967475;28;21279;-52
2022/04/19 01:05:06;;;;;;;216.60;36.77;;;;;;;;;;4958152;28;20198;-52
2022/04/19 01:07:32;;;;;;;105.27;19.07;;;;;;;;;;4966573;28;20222;-52
2022/04/19 01:09:59;;;;;;;141.57;24.77;;;;;;;;;;4959870;28;20224;-52
2022/04/19 01:15:17;;;;;;;133.40;23.33;;;;;;;;;;4955593;28;20263;-52
2022/04/19 01:17:43;;;;;;;141.50;25.47;;;;;;;;;;4966616;28;20218;-52
2022/04/19 01:20:10;;;;;;;189.73;32.60;;;;;;;;;;4968434;28;20547;-52
2022/04/19 01:22:36;;;;;;;108.57;20.10;;;;;;;;;;4963830;28;20640;-52
2022/04/19 01:25:03;;;;;;;129.20;23.60;;;;;;;;;;4962601;28;20218;-52
2022/04/19 01:27:29;;;;;;;119.27;21.70;;;;;;;;;;4968900;28;20225;-52
2022/04/19 01:30:00;;;;;;;144.57;25.07;;;;;;;;;;4962169;28;20252;-52
2022/04/19 01:32:27;;;;;;;128.60;22.00;;;;;;;;;;4968220;28;20183;-52
2022/04/19 01:35:05;;;;;;;95.70;17.60;;;;;;;;;;4972762;28;20653;-52
2022/04/19 01:37:34;;;;;;;152.60;25.53;;;;;;;;;;4962742;28;20245;-52
2022/04/19 01:42:59;;;;;;;71.70;12.77;;;;;;;;;;4966685;28;22449;-52
2022/04/19 01:45:25;;;;;;;168.73;28.17;;;;;;;;;;4968130;28;20750;-52
2022/04/19 01:47:52;;;;;;;113.40;18.50;;;;;;;;;;4964174;28;20217;-52
2022/04/19 01:50:19;;;;;;;149.67;23.30;;;;;;;;;;4966843;28;20201;-52
2022/04/19 01:52:45;;;;;;;102.67;16.53;;;;;;;;;;4974952;28;20241;-52
2022/04/19 01:55:13;;;;;;;78.63;12.43;;;;;;;;;;4967843;28;20221;-52
2022/04/19 01:57:40;;;;;;;61.20;10.20;;;;;;;;;;4967804;28;20222;-52
2022/04/19 02:00:06;;;;;;;132.40;20.23;;;;;;;;;;4970361;28;20225;-52
2022/04/19 02:02:32;;;;;;;219.13;32.97;;;;;;;;;;4966337;28;20194;-52
2022/04/19 02:04:58;;;;;;;168.60;25.97;;;;;;;;;;4961596;28;20748;-52
2022/04/19 02:07:24;;;;;;;117.77;17.97;;;;;;;;;;4965941;28;20221;-52
2022/04/19 02:09:50;;;;;;;119.83;17.57;;;;;;;;;;4963036;28;20209;-52
2022/04/19 02:12:16;;;;;;;158.93;22.60;;;;;;;;;;4966481;28;20217;-52
2022/04/19 02:14:42;;;;;;;107.73;16.17;;;;;;;;;;4970930;28;20309;-52
2022/04/19 02:17:09;;;;;;;130.17;18.93;;;;;;;;;;4967509;28;20194;-52
2022/04/19 02:19:35;;;;;;;99.50;14.70;;;;;;;;;;4972055;28;20299;-52
2022/04/19 02:22:01;;;;;;;202.57;29.90;;;;;;;;;;4961634;28;20226;-52
2022/04/19 02:24:27;;;;;;;83.50;12.57;;;;;;;;;;4972279;28;20218;-52
2022/04/19 02:26:54;;;;;;;178.93;26.53;;;;;;;;;;4970972;28;20252;-52
2022/04/19 02:29:19;;;;;;;157.30;22.37;;;;;;;;;;4965279;28;20601;-52
2022/04/19 02:31:46;;;;;;;77.03;11.53;;;;;;;;;;4969552;28;20183;-52
2022/04/19 02:34:15;;;;;;;136.13;19.67;;;;;;;;;;4965641;28;20477;-52
2022/04/19 02:36:41;;;;;;;104.63;15.57;;;;;;;;;;4966227;28;20224;-52
2022/04/19 02:39:06;;;;;;;121.00;17.23;;;;;;;;;;4970288;28;20214;-53
2022/04/19 02:41:32;;;;;;;56.50;9.20;;;;;;;;;;4972147;28;20284;-52
2022/04/19 02:43:59;;;;;;;66.53;9.77;;;;;;;;;;4970537;28;20687;-52
2022/04/19 02:46:25;;;;;;;53.20;8.17;;;;;;;;;;4968373;28;20213;-52
2022/04/19 02:48:51;;;;;;;25.63;4.33;;;;;;;;;;4975780;28;20209;-52
2022/04/19 02:51:18;;;;;;;126.50;17.47;;;;;;;;;;4963936;28;20279;-52
2022/04/19 02:53:44;;;;;;;53.63;8.40;;;;;;;;;;4979479;28;20728;-52
2022/04/19 02:56:10;;;;;;;80.37;11.47;;;;;;;;;;4969852;28;20198;-52
2022/04/19 02:58:36;;;;;;;135.63;18.80;;;;;;;;;;4963045;28;21156;-52
2022/04/19 03:01:02;;;;;;;91.93;13.17;;;;;;;;;;4964139;28;20218;-52
2022/04/19 03:03:29;;;;;;;77.53;11.63;;;;;;;;;;4968080;28;20213;-52
2022/04/19 03:05:56;;;;;;;65.23;10.77;;;;;;;;;;4966415;28;20232;-52
2022/04/19 03:08:22;;;;;;;132.93;20.40;;;;;;;;;;4963200;28;20367;-52
2022/04/19 03:10:49;;;;;;;61.40;9.80;;;;;;;;;;4969525;28;20269;-52
2022/04/19 03:13:16;;;;;;;115.37;17.47;;;;;;;;;;4973701;28;20252;-52
2022/04/19 03:15:42;;;;;;;117.70;17.97;;;;;;;;;;4955319;28;20236;-52
2022/04/19 03:18:08;;;;;;;159.37;23.53;;;;;;;;;;4961266;28;20213;-52
2022/04/19 03:20:34;;;;;;;109.80;16.93;;;;;;;;;;4962691;28;20225;-52
2022/04/19 03:28:29;;;;;;;146.93;21.33;;;;;;;;;;4970379;28;20223;-52
2022/04/19 03:30:55;;;;;;;167.70;23.90;;;;;;;;;;4964805;28;20634;-52
2022/04/19 03:33:21;;;;;;;153.50;22.10;;;;;;;;;;4960977;28;20840;-52
2022/04/19 03:35:47;;;;;;;82.40;12.30;;;;;;;;;;4963523;28;20356;-52
2022/04/19 03:38:13;;;;;;;61.53;9.60;;;;;;;;;;4965373;28;20201;-52
2022/04/19 03:40:39;;;;;;;82.43;12.57;;;;;;;;;;4965738;28;20316;-52
2022/04/19 03:43:07;;;;;;;137.20;19.20;;;;;;;;;;4959758;28;20217;-52
2022/04/19 03:45:33;;;;;;;97.63;13.27;;;;;;;;;;4966405;28;20249;-52
2022/04/19 03:48:00;;;;;;;104.00;14.73;;;;;;;;;;4971744;28;20268;-52
2022/04/19 03:50:26;;;;;;;121.33;17.23;;;;;;;;;;4962820;28;20205;-52
2022/04/19 03:52:52;;;;;;;104.30;14.97;;;;;;;;;;4960615;28;20208;-52
2022/04/19 03:55:19;;;;;;;91.43;13.47;;;;;;;;;;4968345;28;20229;-52
2022/04/19 03:57:45;;;;;;;65.23;9.80;;;;;;;;;;4974003;28;20229;-52
2022/04/19 04:00:11;;;;;;;153.23;20.93;;;;;;;;;;4958845;28;20228;-52
2022/04/19 04:02:37;;;;;;;109.33;15.37;;;;;;;;;;4967339;28;20292;-52
2022/04/19 04:05:04;;;;;;;85.13;11.80;;;;;;;;;;4970554;28;20662;-52
2022/04/19 04:07:30;;;;;;;119.93;21.73;;;;;;;;;;4971942;28;20217;-52
2022/04/19 04:09:56;;;;;;;118.27;27.93;;;;;;;;;;4967028;28;20251;-52
2022/04/19 04:12:22;;;;;;;100.63;22.73;;;;;;;;;;4971613;28;21376;-52
2022/04/19 04:14:48;;;;;;;58.30;8.10;;;;;;;;;;4960563;28;20230;-52
2022/04/19 04:17:14;;;;;;;83.03;11.17;;;;;;;;;;4972845;28;20281;-52
2022/04/19 04:19:40;;;;;;;70.47;9.87;;;;;;;;;;4962754;28;20268;-52
2022/04/19 04:22:06;;;;;;;87.87;11.93;;;;;;;;;;4960194;28;20221;-52
2022/04/19 04:24:32;;;;;;;71.90;9.80;;;;;;;;;;4973310;28;20292;-52
2022/04/19 04:26:58;;;;;;;121.50;15.87;;;;;;;;;;4967023;28;20350;-52
2022/04/19 04:29:24;;;;;;;93.33;12.97;;;;;;;;;;4966483;28;20186;-52
2022/04/19 04:31:50;;;;;;;92.83;12.47;;;;;;;;;;4959594;28;20190;-52
2022/04/19 04:34:16;;;;;;;94.77;12.60;;;;;;;;;;4961516;28;20225;-52
2022/04/19 04:36:42;;;;;;;109.00;14.53;;;;;;;;;;4956552;28;20221;-52
2022/04/19 04:39:08;;;;;;;114.07;15.57;;;;;;;;;;4968624;28;20740;-52
2022/04/19 04:41:34;;;;;;;56.80;8.17;;;;;;;;;;4972655;28;20220;-52
2022/04/19 04:44:00;;;;;;;77.47;10.30;;;;;;;;;;4966308;28;20285;-52
2022/04/19 04:51:55;;;;;;;97.33;13.37;;;;;;;;;;4966681;28;20313;-52
2022/04/19 04:54:21;;;;;;;175.23;23.07;;;;;;;;;;4965230;28;20332;-53
2022/04/19 04:56:47;;;;;;;52.50;7.50;;;;;;;;;;4964501;28;20222;-52
2022/04/19 04:59:13;;;;;;;71.30;10.03;;;;;;;;;;4959051;28;20186;-52
2022/04/19 05:01:39;;;;;;;93.57;12.50;;;;;;;;;;4973297;28;20280;-52
2022/04/19 05:04:05;;;;;;;110.00;14.53;;;;;;;;;;4964281;28;20300;-52
2022/04/19 05:06:31;;;;;;;112.23;14.90;;;;;;;;;;4958228;28;22823;-52
2022/04/19 05:08:57;;;;;;;84.97;11.43;;;;;;;;;;4972596;28;20575;-52
2022/04/19 05:11:23;;;;;;;44.17;6.60;;;;;;;;;;4969367;28;20544;-52
2022/04/19 05:13:49;;;;;;;41.33;6.20;;;;;;;;;;4965144;28;20281;-52
2022/04/19 05:16:15;;;;;;;45.83;6.60;;;;;;;;;;4958260;28;20279;-52
2022/04/19 05:18:41;;;;;;;122.47;16.20;;;;;;;;;;4962180;28;20221;-52
2022/04/19 05:21:08;;;;;;;50.40;7.00;;;;;;;;;;4968283;28;20221;-52
2022/04/19 05:23:34;;;;;;;76.40;10.63;;;;;;;;;;4971432;28;20269;-52
2022/04/19 05:26:00;;;;;;;71.67;9.63;;;;;;;;;;4971969;28;20336;-52
2022/04/19 05:28:26;;;;;;;73.83;10.10;;;;;;;;;;4964293;28;20308;-52
2022/04/19 05:30:52;;;;;;;50.30;7.20;;;;;;;;;;4962978;28;20209;-52
2022/04/19 05:33:18;;;;;;;45.43;6.67;;;;;;;;;;4971710;28;20265;-52
2022/04/19 05:35:44;;;;;;;86.70;11.90;;;;;;;;;;4965911;28;20225;-52
2022/04/19 05:38:11;;;;;;;121.23;16.20;;;;;;;;;;4954218;28;21703;-52
2022/04/19 05:40:39;;;;;;;61.10;8.37;;;;;;;;;;4965711;28;20288;-53
2022/04/19 05:43:05;;;;;;;81.47;11.27;;;;;;;;;;4976077;28;20226;-53
2022/04/19 05:45:31;;;;;;;53.60;7.57;;;;;;;;;;4973108;28;20217;-53
2022/04/19 05:47:57;;;;;;;53.10;7.50;;;;;;;;;;4981198;28;20300;-53
2022/04/19 05:50:23;;;;;;;63.07;8.83;;;;;;;;;;4972374;28;20183;-53
2022/04/19 05:52:49;;;;;;;69.70;9.43;;;;;;;;;;4972333;28;20293;-53
2022/04/19 05:55:15;;;;;;;75.07;10.47;;;;;;;;;;4974806;28;20224;-54
2022/04/19 05:57:41;;;;;;;51.63;7.33;;;;;;;;;;4977847;28;20530;-53
2022/04/19 06:00:07;;;;;;;52.67;7.37;;;;;;;;;;4980979;28;20232;-54
2022/04/19 06:05:18;;;;;;;78.50;10.97;;;;;;;;;;4976596;28;20194;-54
2022/04/19 06:07:45;;;;;;;50.67;7.27;;;;;;;;;;4983230;28;20225;-54
2022/04/19 06:10:11;;;;;;;84.37;11.77;;;;;;;;;;4979429;28;20641;-53
2022/04/19 06:12:38;;;;;;;76.17;10.33;;;;;;;;;;4979063;28;20316;-54
2022/04/19 06:15:04;;;;;;;76.57;10.40;;;;;;;;;;4978172;28;20777;-54
2022/04/19 06:17:32;;;;;;;64.43;9.00;;;;;;;;;;4984656;28;20209;-53
2022/04/19 06:19:58;;;;;;;43.57;6.23;;;;;;;;;;4988166;28;20244;-54
2022/04/19 06:22:24;;;;;;;45.83;6.63;;;;;;;;;;4985322;28;20228;-53
2022/04/19 06:24:50;;;;;;;62.73;8.47;;;;;;;;;;4985271;28;20213;-53
2022/04/19 06:27:16;;;;;;;42.87;6.13;;;;;;;;;;4975066;28;20280;-53
2022/04/19 06:29:42;;;;;;;150.77;20.23;;;;;;;;;;4959677;28;20687;-53
2022/04/19 06:32:09;;;;;;;105.00;14.50;;;;;;;;;;4964079;28;20196;-52
2022/04/19 06:34:35;;;;;;;52.53;7.40;;;;;;;;;;4974322;28;20213;-53
2022/04/19 06:37:01;;;;;;;73.23;10.23;;;;;;;;;;4968322;28;20236;-53
2022/04/19 06:39:27;;;;;;;76.27;10.70;;;;;;;;;;4975117;28;20245;-53
2022/04/19 06:41:54;;;;;;;91.87;12.90;;;;;;;;;;4968980;28;20275;-53
2022/04/19 06:44:21;;;;;;;99.27;13.63;;;;;;;;;;4975357;28;20302;-53
2022/04/19 06:46:49;;;;;;;141.57;19.50;;;;;;;;;;4966620;28;20230;-52
2022/04/19 06:49:15;;;;;;;98.97;13.67;;;;;;;;;;4974510;28;20214;-52
2022/04/19 06:51:41;;;;;;;41.53;6.27;;;;;;;;;;4968257;28;20232;-53
2022/04/19 06:54:09;;;;;;;36.87;5.30;;;;;;;;;;4965449;28;20217;-53
2022/04/19 06:56:35;;;;;;;49.77;7.13;;;;;;;;;;4987933;28;20208;-54
2022/04/19 06:59:01;;;;;;;33.83;4.93;;;;;;;;;;4994311;28;20177;-53
2022/04/19 07:01:27;;;;;;;80.30;11.07;;;;;;;;;;4972133;28;20229;-53
2022/04/19 07:03:53;;;;;;;165.30;24.60;;;;;;;;;;4973296;28;20265;-54
2022/04/19 07:06:20;;;;;;;115.17;15.73;;;;;;;;;;4960711;28;20310;-53
2022/04/19 07:08:46;;;;;;;116.87;16.63;;;;;;;;;;4979548;28;20222;-53
2022/04/19 07:11:12;;;;;;;53.77;7.60;;;;;;;;;;4985404;28;20204;-53
2022/04/19 07:13:38;;;;;;;45.03;6.37;;;;;;;;;;4980535;28;20217;-53
2022/04/19 07:16:05;;;;;;;60.27;8.37;;;;;;;;;;4982687;28;20225;-53
2022/04/19 07:18:31;;;;;;;40.50;5.90;;;;;;;;;;4987476;28;20253;-53
2022/04/19 07:26:40;;;;;;;48.30;7.03;;;;;;;;;;4983157;28;20223;-53
2022/04/19 07:29:07;;;;;;;29.27;4.57;;;;;;;;;;4987010;28;20558;-53
2022/04/19 07:31:34;;;;;;;40.17;6.00;;;;;;;;;;4987057;28;20237;-53
2022/04/19 07:34:00;;;;;;;41.57;6.17;;;;;;;;;;4987922;28;20630;-53
2022/04/19 07:36:26;;;;;;;38.07;5.53;;;;;;;;;;4985030;28;20578;-53
2022/04/19 07:38:52;;;;;;;56.97;8.00;;;;;;;;;;4989108;28;20292;-53
2022/04/19 07:41:18;;;;;;;42.97;6.30;;;;;;;;;;4988648;28;20197;-53
2022/04/19 07:43:47;;;;;;;45.80;6.50;;;;;;;;;;4993953;28;20189;-53
2022/04/19 07:46:17;;;;;;;44.83;6.57;;;;;;;;;;4989321;28;20225;-53
2022/04/19 07:48:44;;;;;;;30.67;4.63;;;;;;;;;;4991122;28;20221;-53
2022/04/19 07:51:10;;;;;;;53.57;7.47;;;;;;;;;;4990749;28;20206;-54
2022/04/19 07:53:36;;;;;;;58.27;8.30;;;;;;;;;;4990100;28;20189;-53
2022/04/19 07:56:02;;;;;;;39.23;5.73;;;;;;;;;;4993321;28;20197;-54
2022/04/19 07:58:29;;;;;;;53.47;7.73;;;;;;;;;;4988168;28;20305;-54
2022/04/19 08:00:55;;;;;;;25.57;4.03;;;;;;;;;;4984430;28;20225;-54
2022/04/19 08:03:21;;;;;;;44.83;6.53;;;;;;;;;;4997519;28;20250;-54
2022/04/19 08:05:47;;;;;;;48.53;6.97;;;;;;;;;;4985504;28;20217;-54
2022/04/19 08:08:12;;;;;;;42.37;6.17;;;;;;;;;;4985465;28;20173;-53
2022/04/19 08:10:38;;;;;;;63.17;8.70;;;;;;;;;;4989950;28;20553;-54
2022/04/19 08:13:04;;;;;;;74.93;10.93;;;;;;;;;;4981758;28;20701;-53
2022/04/19 08:15:33;;;;;;;21.17;3.53;;;;;;;;;;4975971;28;20229;-53
2022/04/19 08:17:59;;;;;;;44.00;6.60;;;;;;;;;;4984998;28;20221;-53
2022/04/19 08:20:25;;;;;;;57.77;8.70;;;;;;;;;;4989854;28;20213;-53
2022/04/19 08:22:51;;;;;;;50.47;7.40;;;;;;;;;;4989729;28;20260;-53
2022/04/19 08:25:17;;;;;;;51.00;7.50;;;;;;;;;;4990753;28;20372;-54
2022/04/19 08:27:46;;;;;;;49.43;7.27;;;;;;;;;;4989697;28;20606;-54
2022/04/19 08:30:13;;;;;;;52.70;7.87;;;;;;;;;;4984417;28;20212;-54
2022/04/19 08:32:39;;;;;;;40.67;6.13;;;;;;;;;;4995762;28;20326;-54
2022/04/19 08:35:05;;;;;;;43.47;6.50;;;;;;;;;;4992183;28;20654;-53
2022/04/19 08:37:32;;;;;;;36.73;5.70;;;;;;;;;;4990043;28;20227;-54
2022/04/19 08:39:58;;;;;;;77.10;11.30;;;;;;;;;;4983102;28;20229;-53
2022/04/19 08:42:29;;;;;;;47.73;7.07;;;;;;;;;;4983283;28;20221;-53
2022/04/19 08:44:55;;;;;;;57.30;8.67;;;;;;;;;;4977199;28;20559;-53
2022/04/19 08:47:23;;;;;;;61.23;8.90;;;;;;;;;;4977887;28;20267;-54
2022/04/19 08:49:49;;;;;;;58.47;8.57;;;;;;;;;;4984395;28;20194;-53
2022/04/19 08:52:15;;;;;;;38.07;5.80;;;;;;;;;;4976906;28;20209;-53
2022/04/19 08:57:32;;;;;;;50.80;8.17;;;;;;;;;;4980069;28;20299;-54
2022/04/19 08:59:59;;;;;;;87.70;13.23;;;;;;;;;;4977218;28;20240;-53
2022/04/19 09:02:26;;;;;;;55.33;9.07;;;;;;;;;;4978569;28;20178;-53
2022/04/19 09:04:52;;;;;;;77.13;11.73;;;;;;;;;;4979391;28;20225;-53
2022/04/19 09:07:18;;;;;;;58.40;9.30;;;;;;;;;;4974680;28;20304;-54
2022/04/19 09:09:59;;;;;;;57.47;9.13;;;;;;;;;;4976980;28;20229;-54
2022/04/19 09:12:25;;;;;;;57.57;8.87;;;;;;;;;;4981200;28;20221;-53
2022/04/19 09:15:03;;;;;;;68.10;10.50;;;;;;;;;;4977901;28;20574;-53
2022/04/19 09:17:42;;;;;;;63.50;10.03;;;;;;;;;;4982547;28;20674;-54
2022/04/19 09:20:27;;;;;;;76.03;11.70;;;;;;;;;;4977081;28;20633;-54
2022/04/19 09:23:04;;;;;;;73.23;11.13;;;;;;;;;;4979260;28;20232;-53
2022/04/19 09:25:32;;;;;;;73.33;11.23;;;;;;;;;;4974214;28;20603;-54
2022/04/19 09:27:58;;;;;;;81.07;12.37;;;;;;;;;;4980055;28;20213;-54
2022/04/19 09:30:31;;;;;;;74.70;11.77;;;;;;;;;;4982043;28;20225;-53
2022/04/19 09:33:07;;;;;;;58.00;9.23;;;;;;;;;;4983784;28;20232;-54
2022/04/19 09:35:35;;;;;;;62.03;10.23;;;;;;;;;;4985123;28;20345;-54
2022/04/19 09:38:01;;;;;;;61.83;10.90;;;;;;;;;;4985088;28;20186;-54
2022/04/19 09:40:28;;;;;;;66.37;11.30;;;;;;;;;;4988123;28;20407;-54
2022/04/19 09:42:57;;;;;;;120.73;19.63;;;;;;;;;;4983264;28;20206;-53
2022/04/19 09:45:24;;;;;;;46.67;8.27;;;;;;;;;;4983209;28;20774;-53
2022/04/19 09:47:51;;;;;;;64.57;10.97;;;;;;;;;;4984309;28;20217;-53
2022/04/19 09:50:17;;;;;;;77.17;13.03;;;;;;;;;;4981504;28;20190;-54
2022/04/19 09:52:50;;;;;;;57.10;9.50;;;;;;;;;;4988278;28;20264;-54
2022/04/19 09:55:16;;;;;;;72.27;12.33;;;;;;;;;;4986213;28;20221;-54
2022/04/19 09:57:47;;;;;;;71.10;12.10;;;;;;;;;;4985992;28;20222;-54
2022/04/19 10:00:15;;;;;;;66.10;11.33;;;;;;;;;;4978684;28;20535;-53
2022/04/19 10:08:13;;;;;;;65.10;11.80;;;;;;;;;;4981479;28;20729;-53
2022/04/19 10:10:40;;;;;;;50.87;9.50;;;;;;;;;;4983913;28;20684;-53
2022/04/19 10:13:06;;;;;;;79.97;14.90;;;;;;;;;;4993208;28;20726;-53
2022/04/19 10:15:33;;;;;;;79.27;14.30;;;;;;;;;;4978236;28;20228;-53
2022/04/19 10:18:00;;;;;;;74.07;13.63;;;;;;;;;;4980918;28;20305;-52
2022/04/19 10:20:31;;;;;;;106.40;20.13;;;;;;;;;;4978882;28;20724;-53
2022/04/19 10:23:01;;;;;;;52.80;10.55;;;;;;;;;;4983638;28;20174;-53
2022/04/19 10:25:34;;;;;;;76.53;14.30;;;;;;;;;;4980183;28;20217;-53
2022/04/19 10:28:03;;;;;;;75.10;13.80;;;;;;;;;;4979415;28;20625;-53
2022/04/19 10:30:32;;;;;;;63.13;12.17;;;;;;;;;;4982830;28;20224;-52
2022/04/19 10:32:58;;;;;;;92.37;18.13;;;;;;;;;;4978780;28;20218;-52
2022/04/19 10:35:24;;;;;;;122.68;23.33;;;;;;;;;;4981543;28;20192;-52
2022/04/19 10:38:09;;;;;;;106.63;20.20;;;;;;;;;;4979903;28;20272;-53
2022/04/19 10:40:51;;;;;;;50.47;9.67;;;;;;;;;;4981314;28;20222;-53
2022/04/19 10:43:17;;;;;;;62.65;12.43;;;;;;;;;;4982868;28;20225;-52
2022/04/19 10:45:46;;;;;;;56.60;10.98;;;;;;;;;;4980175;28;20563;-54
2022/04/19 10:48:14;;;;;;;82.85;17.45;;;;;;;;;;4982941;28;20213;-53
2022/04/19 10:50:44;;;;;;;89.85;21.75;;;;;;;;;;4985451;28;20225;-53
2022/04/19 10:53:13;;;;;;;104.57;30.55;;;;;;;;;;4978312;28;20192;-53
2022/04/19 10:55:57;;;;;;;78.60;25.30;;;;;;;;;;4976331;28;20225;-53
2022/04/19 10:58:37;;;;;;;58.45;17.13;;;;;;;;;;4986244;28;20232;-53
2022/04/19 11:01:05;;;;;;;94.80;25.60;;;;;;;;;;4978331;28;20228;-53
2022/04/19 11:03:37;;;;;;;59.95;17.27;;;;;;;;;;4981994;28;20302;-53
2022/04/19 11:06:10;;;;;;;97.35;25.17;;;;;;;;;;4978289;28;20241;-53
2022/04/19 11:08:37;;;;;;;91.68;24.63;;;;;;;;;;4986890;28;20181;-53
2022/04/19 11:11:04;;;;;;;150.00;38.38;;;;;;;;;;4984453;28;20310;-53
2022/04/19 11:13:36;;;;;;;93.85;25.98;;;;;;;;;;4980921;28;20249;-52
2022/04/19 11:16:07;;;;;;;96.95;30.45;;;;;;;;;;4980536;28;20701;-53
2022/04/19 11:18:39;;;;;;;109.68;54.83;;;;;;;;;;4976552;28;20268;-53
2022/04/19 11:21:12;;;;;;;162.00;102.50;;;;;;;;;;4976098;28;20234;-55
2022/04/19 11:23:42;;;;;;;156.65;102.57;;;;;;;;;;4976859;28;20216;-52
2022/04/19 11:26:08;;;;;;;190.40;116.28;;;;;;;;;;4980787;28;20297;-54
2022/04/19 11:28:34;;;;;;;210.57;118.05;;;;;;;;;;4985417;28;20221;-53
2022/04/19 11:31:00;;;;;;;158.65;102.63;;;;;;;;;;4977308;28;20213;-53
2022/04/19 11:33:29;;;;;;;130.07;93.50;;;;;;;;;;4973996;28;20211;-53
2022/04/19 11:36:08;;;;;;;133.48;93.47;;;;;;;;;;4974883;28;20578;-53
2022/04/19 11:38:45;;;;;;;148.55;97.03;;;;;;;;;;4978884;28;20178;-53
2022/04/19 11:46:44;;;;;;;216.75;125.90;;;;;;;;;;4975855;28;20236;-53
2022/04/19 11:49:16;;;;;;;202.00;121.43;;;;;;;;;;4981286;28;20689;-53
2022/04/19 11:51:45;;;;;;;268.65;145.65;;;;;;;;;;4972557;28;20360;-53
2022/04/19 11:54:19;;;;;;;240.10;133.93;;;;;;;;;;4983218;28;20260;-53
2022/04/19 11:56:45;;;;;;;264.50;143.15;;;;;;;;;;4976122;28;20891;-53
2022/04/19 11:59:11;;;;;;;296.00;157.15;;;;;;;;;;4980561;28;20189;-54
2022/04/19 12:01:37;;;;;;;325.90;160.37;;;;;;;;;;4981675;28;20248;-53
2022/04/19 12:04:13;;;;;;;359.30;175.23;;;;;;;;;;4982644;28;20221;-54
2022/04/19 12:06:39;;;;;;;245.77;136.98;;;;;;;;;;4983890;28;20772;-54
2022/04/19 12:09:05;;;;;;;343.47;167.97;;;;;;;;;;4980094;28;20250;-54
2022/04/19 12:11:32;;;;;;;323.63;159.30;;;;;;;;;;4979340;28;20644;-54
2022/04/19 12:13:58;;;;;;;334.93;163.97;;;;;;;;;;4982420;28;20189;-54
2022/04/19 12:16:38;;;;;;;137.70;105.70;;;;;;;;;;4990547;28;20247;-55
2022/04/19 12:19:07;;;;;;;119.85;87.95;;;;;;;;;;4989772;28;20228;-54
2022/04/19 12:21:38;;;;;;;122.63;85.63;;;;;;;;;;4986081;28;20217;-54
2022/04/19 12:24:24;;;;;;;79.53;71.00;;;;;;;;;;4983811;28;20716;-54
2022/04/19 12:26:51;;;;;;;103.03;80.55;;;;;;;;;;4985514;28;20320;-54
2022/04/19 12:29:17;;;;;;;121.57;93.53;;;;;;;;;;4991428;28;20204;-54
2022/04/19 12:31:47;;;;;;;95.10;85.82;;;;;;;;;;4986840;28;20209;-55
2022/04/19 12:34:15;;;;;;;136.02;99.20;;;;;;;;;;4986207;28;20212;-54
2022/04/19 12:36:48;;;;;;;78.18;71.32;;;;;;;;;;4986760;28;20577;-54
2022/04/19 12:39:14;;;;;;;136.43;88.13;;;;;;;;;;4987685;28;20225;-55
2022/04/19 12:41:44;;;;;;;108.70;80.75;;;;;;;;;;4985935;28;20235;-55
2022/04/19 12:44:15;;;;;;;69.80;43.90;;;;;;;;;;4985502;28;20185;-54
2022/04/19 12:46:45;;;;;;;91.13;50.03;;;;;;;;;;4988692;28;20244;-55
2022/04/19 12:49:24;;;;;;;85.93;38.55;;;;;;;;;;4989420;28;20697;-54
2022/04/19 12:52:06;;;;;;;77.10;47.92;;;;;;;;;;4975137;28;20662;-54
2022/04/19 12:54:39;;;;;;;105.82;68.47;;;;;;;;;;4989806;28;20236;-54
2022/04/19 12:57:10;;;;;;;107.47;84.32;;;;;;;;;;4989974;28;20213;-54
2022/04/19 12:59:36;;;;;;;89.18;78.18;;;;;;;;;;4997269;28;20269;-54
2022/04/19 13:02:02;;;;;;;109.18;75.70;;;;;;;;;;4989724;28;20276;-54
2022/04/19 13:04:29;;;;;;;80.95;46.97;;;;;;;;;;4988812;28;20213;-54
2022/04/19 13:12:26;;;;;;;102.80;68.07;;;;;;;;;;4991958;28;20279;-54
2022/04/19 13:14:53;;;;;;;167.27;84.03;;;;;;;;;;4992374;28;20677;-54
2022/04/19 13:17:20;;;;;;;185.38;120.20;;;;;;;;;;4985807;28;20197;-54
2022/04/19 13:19:46;;;;;;;308.20;158.50;;;;;;;;;;4989753;28;20174;-54
2022/04/19 13:22:13;;;;;;;325.73;159.98;;;;;;;;;;4988936;28;20256;-55
2022/04/19 13:24:39;;;;;;;312.02;161.25;;;;;;;;;;4988043;28;20225;-54
2022/04/19 13:27:06;;;;;;;325.58;168.25;;;;;;;;;;4989224;28;20225;-54
2022/04/19 13:29:32;;;;;;;308.38;158.10;;;;;;;;;;4984081;28;20276;-54
2022/04/19 13:31:58;;;;;;;329.83;170.40;;;;;;;;;;4991125;28;20252;-54
2022/04/19 13:34:25;;;;;;;316.70;159.15;;;;;;;;;;4988103;28;20681;-54
2022/04/19 13:36:51;;;;;;;312.10;155.32;;;;;;;;;;4989863;28;20243;-55
2022/04/19 13:39:17;;;;;;;312.02;157.15;;;;;;;;;;4989351;28;20267;-55
2022/04/19 13:41:43;;;;;;;334.23;159.90;;;;;;;;;;4988454;28;20625;-54
2022/04/19 13:44:10;;;;;;;344.57;167.47;;;;;;;;;;4988044;28;20235;-54
2022/04/19 13:46:37;;;;;;;363.50;178.80;;;;;;;;;;4983679;28;20213;-55
2022/04/19 13:49:03;;;;;;;345.77;166.53;;;;;;;;;;4984378;28;20225;-54
2022/04/19 13:51:29;;;;;;;347.23;175.70;;;;;;;;;;4988283;28;20676;-54
2022/04/19 13:53:55;;;;;;;327.63;162.60;;;;;;;;;;4992049;28;20213;-55
2022/04/19 13:56:21;;;;;;;283.65;157.10;;;;;;;;;;4990961;28;20577;-54
2022/04/19 13:58:47;;;;;;;351.58;172.52;;;;;;;;;;4992654;28;20173;-55
2022/04/19 14:01:13;;;;;;;336.43;168.17;;;;;;;;;;5005161;28;20241;-54
2022/04/19 14:03:39;;;;;;;323.00;174.63;;;;;;;;;;4985336;28;20670;-52
2022/04/19 14:06:05;;;;;;;290.27;158.98;;;;;;;;;;4982759;28;20218;-55
2022/04/19 14:08:32;;;;;;;340.30;170.80;;;;;;;;;;4988612;28;20188;-54
2022/04/19 14:10:59;;;;;;;181.63;132.27;;;;;;;;;;4988713;28;20188;-52
2022/04/19 14:13:25;;;;;;;243.27;158.50;;;;;;;;;;4979807;28;20221;-53
2022/04/19 14:15:51;;;;;;;213.80;157.93;;;;;;;;;;4992868;28;20239;-54
2022/04/19 14:18:18;;;;;;;57.95;11.52;;;;;;;;;;4990648;28;20256;-53
2022/04/19 14:20:44;;;;;;;45.70;9.38;;;;;;;;;;4989454;28;20283;-53
2022/04/19 14:23:10;;;;;;;50.75;9.95;;;;;;;;;;4988687;28;20690;-53
2022/04/19 14:25:36;;;;;;;66.13;13.27;;;;;;;;;;4996707;28;20236;-53
2022/04/19 14:28:02;;;;;;;55.05;11.68;;;;;;;;;;4996857;28;20225;-53
2022/04/19 14:33:16;;;;;;;47.33;9.20;;;;;;;;;;4987468;28;20676;-53
2022/04/19 14:35:42;;;;;;;54.05;10.70;;;;;;;;;;4999269;28;20225;-53
2022/04/19 14:38:08;;;;;;;34.95;6.88;;;;;;;;;;4993264;28;20190;-53
2022/04/19 14:40:34;;;;;;;66.43;12.35;;;;;;;;;;4990668;28;20213;-53
2022/04/19 14:43:00;;;;;;;54.47;10.18;;;;;;;;;;4990880;28;20263;-54
2022/04/19 14:45:26;;;;;;;72.72;13.38;;;;;;;;;;4976978;28;20209;-52
2022/04/19 14:47:52;;;;;;;62.08;11.45;;;;;;;;;;4988860;28;20307;-53
2022/04/19 14:50:18;;;;;;;47.55;8.40;;;;;;;;;;4990810;28;20189;-52
2022/04/19 14:52:47;;;;;;;41.97;7.78;;;;;;;;;;4990106;28;20240;-52
2022/04/19 14:55:14;;;;;;;46.10;8.32;;;;;;;;;;4990583;28;20523;-53
2022/04/19 14:57:40;;;;;;;48.35;8.73;;;;;;;;;;4988467;28;20233;-53
2022/04/19 15:00:06;;;;;;;55.38;9.88;;;;;;;;;;4991760;28;20217;-53
2022/04/19 15:02:34;;;;;;;56.28;10.50;;;;;;;;;;4983631;28;20182;-52